Time;durP1;ratioP1;P1;durP2;ratioP2;P2;SDS_P1;SDS_P2;PMS_P1;PMS_P2;Temp;Humidity;BMP_temperature;BMP_pressure;BME280_temperature;BME280_humidity;BME280_pressure;Samples;Min_cycle;Max_cycle;Signal;HPM_P1;HPM_P2
2021/12/01 00:00:55;;;;;;;0.10;0.10;;;9.10;99.90;;;;;;5103358;27;20039;-81
2021/12/01 00:03:21;;;;;;;0.40;0.30;;;9.20;99.90;;;;;;5103126;27;20050;-81
2021/12/01 00:05:49;;;;;;;0.20;0.20;;;9.20;99.90;;;;;;5120091;27;20495;-81
2021/12/01 00:08:15;;;;;;;0.35;0.22;;;9.20;99.90;;;;;;5120241;27;20042;-81
2021/12/01 00:10:41;;;;;;;1.73;0.43;;;9.20;99.90;;;;;;5103030;27;20050;-79
2021/12/01 00:13:10;;;;;;;0.70;0.70;;;9.20;99.90;;;;;;5119905;27;20039;-81
2021/12/01 00:15:37;;;;;;;0.35;0.25;;;9.30;99.90;;;;;;5119655;27;20043;-80
2021/12/01 00:18:03;;;;;;;0.00;0.00;;;9.30;99.90;;;;;;5103359;27;20078;-79
2021/12/01 00:20:29;;;;;;;0.50;0.17;;;9.30;99.90;;;;;;5103295;27;20129;-80
2021/12/01 00:22:55;;;;;;;0.20;0.20;;;9.30;99.90;;;;;;5120130;27;20118;-80
2021/12/01 00:25:23;;;;;;;0.17;0.17;;;9.30;99.90;;;;;;5102592;27;20502;-80
2021/12/01 00:27:50;;;;;;;0.22;0.20;;;9.30;99.90;;;;;;5119309;27;20478;-79
2021/12/01 00:30:17;;;;;;;0.00;0.00;;;9.30;99.90;;;;;;5102864;27;20047;-80
2021/12/01 00:32:43;;;;;;;1.88;1.30;;;9.30;99.90;;;;;;5102953;27;20047;-80
2021/12/01 00:35:09;;;;;;;0.10;0.10;;;9.30;99.90;;;;;;5102955;27;20042;-80
2021/12/01 00:37:37;;;;;;;0.10;0.10;;;9.30;99.90;;;;;;5119864;27;20038;-79
2021/12/01 00:40:08;;;;;;;4.03;0.63;;;9.30;99.90;;;;;;5119400;27;20133;-81
2021/12/01 00:42:34;;;;;;;0.47;0.28;;;9.30;99.90;;;;;;5120044;27;20051;-80
2021/12/01 00:45:06;;;;;;;17.13;0.65;;;9.30;99.90;;;;;;5103151;27;20133;-80
2021/12/01 00:47:50;;;;;;;0.43;0.43;;;9.40;99.90;;;;;;5120050;27;20108;-80
2021/12/01 00:50:19;;;;;;;1.08;0.63;;;9.40;99.90;;;;;;5102977;27;20108;-81
2021/12/01 00:52:45;;;;;;;0.50;0.30;;;9.40;99.90;;;;;;5119774;27;20138;-81
2021/12/01 00:55:11;;;;;;;0.17;0.17;;;9.40;99.90;;;;;;5102446;27;20443;-80
2021/12/01 00:57:36;;;;;;;1.45;0.10;;;9.40;99.90;;;;;;5119133;27;20078;-80
2021/12/01 01:00:08;;;;;;;0.15;0.15;;;9.40;99.90;;;;;;5119230;27;20050;-80
2021/12/01 01:02:37;;;;;;;0.10;0.10;;;9.40;99.90;;;;;;5101956;27;20053;-81
2021/12/01 01:05:07;;;;;;;0.63;0.17;;;9.40;99.90;;;;;;5101116;27;20035;-81
2021/12/01 01:07:33;;;;;;;0.30;0.20;;;9.40;99.90;;;;;;5118894;27;20054;-81
2021/12/01 01:10:04;;;;;;;0.82;0.35;;;9.50;99.90;;;;;;5102438;27;20043;-81
2021/12/01 01:18:05;;;;;;;0.50;0.50;;;9.40;99.90;;;;;;5119607;27;20047;-80
2021/12/01 01:20:32;;;;;;;0.25;0.22;;;9.50;99.90;;;;;;5101539;27;20051;-80
2021/12/01 01:22:58;;;;;;;0.98;0.45;;;9.50;99.90;;;;;;5101446;27;20046;-80
2021/12/01 01:25:23;;;;;;;0.30;0.20;;;9.50;99.90;;;;;;5118600;27;20047;-80
2021/12/01 01:27:49;;;;;;;0.80;0.50;;;9.50;99.90;;;;;;5102096;27;20043;-81
2021/12/01 01:30:15;;;;;;;1.13;0.73;;;9.40;99.90;;;;;;5102182;27;20141;-81
2021/12/01 01:32:40;;;;;;;0.15;0.00;;;9.40;99.90;;;;;;5102573;27;20050;-81
2021/12/01 01:35:07;;;;;;;1.48;0.13;;;9.40;99.90;;;;;;5101601;27;20555;-81
2021/12/01 01:37:32;;;;;;;0.47;0.10;;;9.50;99.90;;;;;;5101319;27;20081;-80
2021/12/01 01:39:58;;;;;;;0.00;0.00;;;9.50;99.90;;;;;;5118514;27;20478;-80
2021/12/01 01:42:24;;;;;;;1.05;0.13;;;9.50;99.90;;;;;;5118370;27;20056;-81
2021/12/01 01:44:49;;;;;;;0.80;0.20;;;9.50;99.90;;;;;;5101224;27;20043;-80
2021/12/01 01:47:15;;;;;;;0.55;0.10;;;9.50;99.90;;;;;;5118833;27;20042;-80
2021/12/01 01:49:54;;;;;;;0.85;0.55;;;9.50;99.90;;;;;;5101964;27;20133;-80
2021/12/01 01:52:19;;;;;;;0.40;0.38;;;9.50;99.90;;;;;;5101723;27;20065;-80
2021/12/01 01:54:45;;;;;;;1.30;0.65;;;9.50;99.90;;;;;;5101861;27;20466;-80
2021/12/01 01:57:11;;;;;;;7.88;1.40;;;9.50;99.90;;;;;;5101315;27;20095;-81
2021/12/01 01:59:36;;;;;;;1.85;0.30;;;9.50;99.90;;;;;;5101687;27;20090;-80
2021/12/01 02:02:03;;;;;;;0.20;0.20;;;9.50;99.90;;;;;;5118208;27;20050;-80
2021/12/01 02:04:33;;;;;;;0.55;0.43;;;9.50;99.90;;;;;;5101348;27;20582;-79
2021/12/01 02:07:00;;;;;;;0.25;0.25;;;9.60;99.90;;;;;;5101345;27;20055;-81
2021/12/01 02:09:26;;;;;;;0.00;0.00;;;9.60;99.90;;;;;;5101488;27;20130;-79
2021/12/01 02:11:55;;;;;;;1.27;0.45;;;9.60;99.90;;;;;;5117665;27;20505;-80
2021/12/01 02:14:21;;;;;;;0.10;0.10;;;9.60;99.90;;;;;;5100605;27;20489;-81
2021/12/01 02:16:47;;;;;;;0.00;0.00;;;9.60;99.90;;;;;;5117145;28;20088;-79
2021/12/01 02:19:12;;;;;;;0.10;0.05;;;9.60;99.90;;;;;;5100131;27;20135;-81
2021/12/01 02:21:38;;;;;;;0.20;0.20;;;9.60;99.90;;;;;;5117473;27;20139;-81
2021/12/01 02:24:10;;;;;;;3.05;0.05;;;9.60;99.90;;;;;;5117150;27;20058;-80
2021/12/01 02:26:39;;;;;;;0.10;0.10;;;9.60;99.90;;;;;;5117363;27;20054;-81
2021/12/01 02:29:08;;;;;;;0.10;0.10;;;9.70;99.90;;;;;;5100956;27;20066;-81
2021/12/01 02:31:36;;;;;;;2.22;0.03;;;9.60;99.90;;;;;;5100212;27;20047;-81
2021/12/01 02:34:09;;;;;;;0.15;0.15;;;9.60;99.90;;;;;;5100193;27;20046;-81
2021/12/01 02:36:37;;;;;;;0.30;0.20;;;9.60;99.90;;;;;;5100164;27;20050;-81
2021/12/01 02:39:09;;;;;;;0.00;0.00;;;9.60;99.90;;;;;;5099830;27;20092;-81
2021/12/01 02:41:35;;;;;;;0.00;0.00;;;9.70;99.90;;;;;;5117692;27;20054;-80
2021/12/01 02:44:04;;;;;;;0.00;0.00;;;9.60;99.90;;;;;;5117664;27;20577;-80
2021/12/01 02:46:30;;;;;;;0.10;0.10;;;9.70;99.90;;;;;;5100188;27;20498;-81
2021/12/01 02:48:57;;;;;;;0.20;0.20;;;9.70;99.90;;;;;;5099911;27;20089;-81
2021/12/01 02:51:27;;;;;;;0.00;0.00;;;9.70;99.90;;;;;;5100530;27;20087;-81
2021/12/01 02:53:53;;;;;;;0.05;0.05;;;9.70;99.90;;;;;;5117537;27;20462;-81
2021/12/01 02:56:21;;;;;;;0.00;0.00;;;9.70;99.90;;;;;;5099412;27;20093;-81
2021/12/01 02:58:48;;;;;;;0.00;0.00;;;9.70;99.90;;;;;;5099820;27;20475;-82
2021/12/01 03:01:20;;;;;;;0.10;0.10;;;9.80;99.90;;;;;;5117551;27;20130;-82
2021/12/01 03:03:46;;;;;;;0.00;0.00;;;9.80;99.90;;;;;;5117447;27;20081;-81
2021/12/01 03:06:13;;;;;;;0.00;0.00;;;9.80;99.90;;;;;;5117097;27;20502;-80
2021/12/01 03:08:42;;;;;;;0.00;0.00;;;9.80;99.90;;;;;;5117961;27;20054;-81
2021/12/01 03:11:09;;;;;;;0.00;0.00;;;9.80;99.90;;;;;;5100136;27;20039;-81
2021/12/01 03:13:34;;;;;;;0.10;0.00;;;9.80;99.90;;;;;;5117531;28;20046;-81
2021/12/01 03:16:00;;;;;;;0.05;0.05;;;9.80;99.90;;;;;;5099254;27;20498;-80
2021/12/01 03:18:28;;;;;;;0.20;0.10;;;9.80;99.90;;;;;;5099574;27;20059;-80
2021/12/01 03:20:54;;;;;;;0.00;0.00;;;9.80;99.90;;;;;;5100314;27;20054;-80
2021/12/01 03:23:20;;;;;;;0.00;0.00;;;9.80;99.90;;;;;;5099927;28;20058;-81
2021/12/01 03:25:46;;;;;;;0.00;0.00;;;9.80;99.90;;;;;;5099959;28;20051;-80
2021/12/01 03:28:12;;;;;;;0.00;0.00;;;9.80;99.90;;;;;;5098990;28;20059;-80
2021/12/01 03:30:39;;;;;;;0.00;0.00;;;9.90;99.90;;;;;;5117053;28;20406;-80
2021/12/01 03:33:11;;;;;;;0.00;0.00;;;9.80;99.90;;;;;;5116940;28;20439;-81
2021/12/01 03:35:39;;;;;;;0.10;0.10;;;9.80;99.90;;;;;;5117352;28;20035;-80
2021/12/01 03:38:06;;;;;;;0.00;0.00;;;9.80;99.90;;;;;;5100245;28;20047;-80
2021/12/01 03:40:32;;;;;;;0.00;0.00;;;9.80;99.90;;;;;;5100219;28;20051;-81
2021/12/01 03:42:58;;;;;;;0.00;0.00;;;9.80;99.90;;;;;;5116719;28;20085;-80
2021/12/01 03:45:24;;;;;;;0.10;0.03;;;9.90;99.90;;;;;;5099979;28;20071;-80
2021/12/01 03:47:49;;;;;;;0.00;0.00;;;9.90;99.90;;;;;;5116619;28;20119;-81
2021/12/01 03:50:15;;;;;;;0.00;0.00;;;9.90;99.90;;;;;;5100004;28;20055;-80
2021/12/01 03:52:41;;;;;;;0.00;0.00;;;9.90;99.90;;;;;;5099807;28;20059;-80
2021/12/01 03:55:08;;;;;;;0.00;0.00;;;9.90;99.90;;;;;;5116593;28;20099;-80
2021/12/01 03:57:35;;;;;;;0.00;0.00;;;9.90;99.90;;;;;;5099780;27;20051;-80
2021/12/01 04:00:02;;;;;;;0.13;0.13;;;9.80;99.90;;;;;;5099660;28;20398;-80
2021/12/01 04:02:28;;;;;;;0.00;0.00;;;9.80;99.90;;;;;;5099230;28;20171;-80
2021/12/01 04:04:54;;;;;;;0.00;0.00;;;9.80;99.90;;;;;;5116350;28;20084;-80
2021/12/01 04:07:19;;;;;;;0.00;0.00;;;9.80;99.90;;;;;;5099625;28;20142;-80
2021/12/01 04:09:45;;;;;;;0.00;0.00;;;9.80;99.90;;;;;;5099673;28;20047;-80
2021/12/01 04:12:11;;;;;;;0.00;0.00;;;9.90;99.90;;;;;;5116833;28;20051;-80
2021/12/01 04:14:37;;;;;;;0.05;0.00;;;9.80;99.90;;;;;;5116335;28;20050;-80
2021/12/01 04:17:04;;;;;;;0.03;0.03;;;9.80;99.90;;;;;;5099751;28;20062;-80
2021/12/01 04:19:30;;;;;;;0.00;0.00;;;9.70;99.90;;;;;;5116046;28;20051;-80
2021/12/01 04:21:56;;;;;;;0.03;0.03;;;9.70;99.90;;;;;;5099081;28;20053;-80
2021/12/01 04:24:22;;;;;;;0.00;0.00;;;9.70;99.90;;;;;;5115633;28;20055;-80
2021/12/01 04:26:47;;;;;;;0.00;0.00;;;9.70;99.90;;;;;;5116110;28;20107;-80
2021/12/01 04:29:13;;;;;;;0.00;0.00;;;9.70;99.90;;;;;;5098854;28;20054;-80
2021/12/01 04:31:40;;;;;;;0.00;0.00;;;9.70;99.90;;;;;;5115822;28;20130;-81
2021/12/01 04:34:06;;;;;;;0.00;0.00;;;9.70;99.90;;;;;;5098777;28;20111;-80
2021/12/01 04:36:36;;;;;;;0.00;0.00;;;9.60;99.90;;;;;;5115986;28;20086;-80
2021/12/01 04:39:06;;;;;;;0.00;0.00;;;9.60;99.90;;;;;;5115502;28;20043;-80
2021/12/01 04:41:38;;;;;;;0.00;0.00;;;9.60;99.90;;;;;;5118292;27;20062;-80
2021/12/01 04:44:09;;;;;;;0.00;0.00;;;9.60;99.90;;;;;;5119471;27;20399;-80
2021/12/01 04:46:40;;;;;;;0.00;0.00;;;9.50;99.90;;;;;;5119756;27;20054;-81
2021/12/01 04:49:07;;;;;;;0.00;0.00;;;9.50;99.90;;;;;;5102090;27;20510;-80
2021/12/01 04:51:33;;;;;;;0.00;0.00;;;9.50;99.90;;;;;;5102279;27;20058;-79
2021/12/01 04:53:59;;;;;;;0.00;0.00;;;9.50;99.90;;;;;;5102897;27;20458;-81
2021/12/01 04:56:25;;;;;;;0.00;0.00;;;9.50;99.90;;;;;;5101705;27;20039;-79
2021/12/01 04:58:50;;;;;;;0.00;0.00;;;9.50;99.90;;;;;;5102203;27;20069;-80
2021/12/01 05:01:17;;;;;;;0.00;0.00;;;9.50;99.90;;;;;;5102599;27;20134;-80
2021/12/01 05:03:43;;;;;;;0.00;0.00;;;9.40;99.90;;;;;;5119600;27;20535;-80
2021/12/01 05:06:12;;;;;;;0.00;0.00;;;9.50;99.90;;;;;;5119871;27;20039;-80
2021/12/01 05:08:38;;;;;;;0.00;0.00;;;9.40;99.90;;;;;;5102859;27;20138;-80
2021/12/01 05:11:04;;;;;;;0.00;0.00;;;9.40;99.90;;;;;;5101796;27;20119;-81
2021/12/01 05:13:30;;;;;;;0.00;0.00;;;9.40;99.90;;;;;;5102178;27;20129;-81
2021/12/01 05:15:55;;;;;;;0.00;0.00;;;9.30;99.90;;;;;;5119448;27;20138;-81
2021/12/01 05:18:22;;;;;;;0.00;0.00;;;9.30;99.90;;;;;;5119687;27;20085;-80
2021/12/01 05:20:48;;;;;;;0.00;0.00;;;9.30;99.90;;;;;;5102384;27;20138;-80
2021/12/01 05:23:15;;;;;;;0.00;0.00;;;9.30;99.90;;;;;;5119156;27;20100;-81
2021/12/01 05:25:42;;;;;;;0.00;0.00;;;9.20;99.90;;;;;;5119320;27;20058;-81
2021/12/01 05:28:08;;;;;;;0.00;0.00;;;9.30;99.90;;;;;;5102366;27;20039;-82
2021/12/01 05:30:34;;;;;;;0.22;0.22;;;9.20;99.90;;;;;;5119147;27;20049;-80
2021/12/01 05:33:05;;;;;;;0.00;0.00;;;9.20;99.90;;;;;;5118810;27;20054;-80
2021/12/01 05:35:31;;;;;;;0.00;0.00;;;9.20;99.90;;;;;;5101809;27;20486;-80
2021/12/01 05:37:57;;;;;;;0.00;0.00;;;9.20;99.90;;;;;;5102036;27;20056;-80
2021/12/01 05:40:23;;;;;;;0.20;0.00;;;9.20;99.90;;;;;;5118768;27;20051;-80
2021/12/01 05:42:49;;;;;;;0.00;0.00;;;9.10;99.90;;;;;;5118370;27;20184;-80
2021/12/01 05:45:15;;;;;;;0.98;0.03;;;9.10;99.90;;;;;;5119003;27;20103;-80
2021/12/01 05:47:40;;;;;;;0.00;0.00;;;9.10;99.90;;;;;;5118842;27;20371;-80
2021/12/01 05:50:06;;;;;;;0.08;0.08;;;9.10;99.90;;;;;;5118072;27;20051;-80
2021/12/01 05:52:32;;;;;;;0.00;0.00;;;9.10;99.90;;;;;;5118149;27;20046;-80
2021/12/01 05:54:58;;;;;;;0.57;0.00;;;9.10;99.90;;;;;;5100659;27;20043;-80
2021/12/01 05:57:24;;;;;;;0.00;0.00;;;9.10;99.90;;;;;;5118840;27;20077;-81
2021/12/01 05:59:49;;;;;;;0.00;0.00;;;9.00;99.90;;;;;;5118086;27;20584;-80
2021/12/01 06:02:15;;;;;;;0.00;0.00;;;9.00;99.90;;;;;;5118242;27;20051;-80
2021/12/01 06:04:41;;;;;;;0.03;0.00;;;9.00;99.90;;;;;;5101421;27;20039;-80
2021/12/01 06:07:07;;;;;;;0.00;0.00;;;9.00;99.90;;;;;;5118476;27;20523;-81
2021/12/01 06:09:33;;;;;;;0.00;0.00;;;9.00;99.90;;;;;;5118162;27;20054;-79
2021/12/01 06:11:58;;;;;;;0.00;0.00;;;9.00;99.90;;;;;;5101378;27;20091;-80
2021/12/01 06:14:24;;;;;;;0.00;0.00;;;8.90;99.90;;;;;;5101176;27;20074;-80
2021/12/01 06:16:50;;;;;;;0.10;0.10;;;9.00;99.90;;;;;;5101322;27;20566;-80
2021/12/01 06:19:16;;;;;;;0.22;0.15;;;8.90;99.90;;;;;;5101376;27;20051;-80
2021/12/01 06:21:41;;;;;;;0.10;0.00;;;8.90;99.90;;;;;;5118337;27;20051;-80
2021/12/01 06:24:07;;;;;;;0.00;0.00;;;8.90;99.90;;;;;;5097522;28;20138;-81
2021/12/01 06:26:33;;;;;;;0.00;0.00;;;8.90;99.90;;;;;;5097687;28;20065;-81
2021/12/01 06:28:59;;;;;;;0.00;0.00;;;8.90;99.90;;;;;;5114325;28;20118;-81
2021/12/01 06:31:24;;;;;;;0.00;0.00;;;8.80;99.90;;;;;;5114534;28;20039;-81
2021/12/01 06:33:50;;;;;;;0.20;0.08;;;8.90;99.90;;;;;;5114261;28;20472;-82
2021/12/01 06:36:16;;;;;;;0.00;0.00;;;8.90;99.90;;;;;;5097258;28;20479;-82
2021/12/01 06:38:42;;;;;;;0.00;0.00;;;8.90;99.90;;;;;;5097615;28;20440;-82
2021/12/01 06:41:08;;;;;;;0.00;0.00;;;8.80;99.90;;;;;;5096918;28;20047;-81
2021/12/01 06:43:34;;;;;;;0.00;0.00;;;8.80;99.90;;;;;;5096809;28;20425;-81
2021/12/01 06:46:00;;;;;;;0.00;0.00;;;8.80;99.90;;;;;;5097323;28;20061;-81
2021/12/01 06:48:25;;;;;;;0.00;0.00;;;8.80;99.90;;;;;;5114248;28;20138;-81
2021/12/01 06:50:51;;;;;;;0.00;0.00;;;8.80;99.90;;;;;;5114188;28;20074;-80
2021/12/01 06:53:18;;;;;;;0.00;0.00;;;8.80;99.90;;;;;;5096516;28;20175;-81
2021/12/01 06:55:43;;;;;;;0.00;0.00;;;8.90;99.90;;;;;;5113168;28;20036;-81
2021/12/01 06:58:09;;;;;;;0.00;0.00;;;8.80;99.90;;;;;;5113359;28;20050;-81
2021/12/01 07:00:35;;;;;;;0.00;0.00;;;8.80;99.90;;;;;;5096240;28;20044;-80
2021/12/01 07:03:01;;;;;;;0.10;0.10;;;8.80;99.90;;;;;;5112869;28;20048;-80
2021/12/01 07:05:26;;;;;;;0.03;0.00;;;8.80;99.90;;;;;;5114030;28;20469;-81
2021/12/01 07:07:52;;;;;;;0.00;0.00;;;8.80;99.90;;;;;;5113584;28;20126;-81
2021/12/01 07:10:19;;;;;;;0.43;0.13;;;8.80;99.90;;;;;;5114093;28;20080;-79
2021/12/01 07:12:45;;;;;;;0.00;0.00;;;8.80;99.90;;;;;;5097027;28;20044;-80
2021/12/01 07:15:12;;;;;;;0.00;0.00;;;8.80;99.90;;;;;;5113787;28;20134;-79
2021/12/01 07:17:38;;;;;;;0.00;0.00;;;8.80;99.90;;;;;;5089004;28;20075;-79
2021/12/01 07:20:05;;;;;;;0.00;0.00;;;8.80;99.90;;;;;;5101779;28;20497;-79
2021/12/01 07:22:31;;;;;;;0.00;0.00;;;8.70;99.90;;;;;;5084138;28;20055;-80
2021/12/01 07:24:57;;;;;;;0.00;0.00;;;8.70;99.90;;;;;;5093578;28;20054;-79
2021/12/01 07:27:23;;;;;;;0.00;0.00;;;8.70;99.90;;;;;;5136956;27;20047;-78
2021/12/01 07:29:49;;;;;;;0.00;0.00;;;8.70;99.90;;;;;;5111666;28;20096;-79
2021/12/01 07:32:14;;;;;;;0.00;0.00;;;8.70;99.90;;;;;;5111389;28;20051;-79
2021/12/01 07:34:41;;;;;;;0.00;0.00;;;8.80;99.90;;;;;;5108799;28;20048;-80
2021/12/01 07:37:09;;;;;;;0.00;0.00;;;8.70;99.90;;;;;;5111750;28;20046;-81
2021/12/01 07:39:34;;;;;;;0.00;0.00;;;8.70;99.90;;;;;;5094861;28;20066;-82
2021/12/01 07:42:00;;;;;;;0.00;0.00;;;8.80;99.90;;;;;;5111831;28;20031;-81
2021/12/01 07:44:26;;;;;;;0.10;0.00;;;8.70;99.90;;;;;;5111860;28;20047;-81
2021/12/01 07:46:51;;;;;;;0.00;0.00;;;8.70;99.90;;;;;;5094817;28;20114;-83
2021/12/01 07:49:19;;;;;;;0.00;0.00;;;8.80;99.90;;;;;;5111561;28;20032;-81
2021/12/01 07:51:45;;;;;;;0.00;0.00;;;8.70;99.90;;;;;;5111897;28;20048;-81
2021/12/01 07:54:11;;;;;;;0.00;0.00;;;8.70;99.90;;;;;;5094622;28;20051;-81
2021/12/01 07:56:36;;;;;;;0.00;0.00;;;8.80;99.90;;;;;;5111460;28;20039;-81
2021/12/01 07:59:02;;;;;;;0.00;0.00;;;8.70;99.90;;;;;;5120328;28;20457;-82
2021/12/01 08:01:28;;;;;;;0.00;0.00;;;8.70;99.90;;;;;;5111953;28;20044;-82
2021/12/01 08:03:54;;;;;;;0.00;0.00;;;8.90;99.90;;;;;;5111690;28;20079;-81
2021/12/01 08:06:20;;;;;;;0.00;0.00;;;8.80;99.90;;;;;;5129699;28;20063;-81
2021/12/01 08:08:46;;;;;;;0.00;0.00;;;8.80;99.90;;;;;;5096732;28;20048;-80
2021/12/01 08:11:11;;;;;;;0.00;0.00;;;8.80;99.90;;;;;;5130466;28;20046;-81
2021/12/01 08:13:38;;;;;;;0.00;0.00;;;8.80;99.90;;;;;;5130252;28;20109;-80
2021/12/01 08:16:03;;;;;;;0.00;0.00;;;8.80;99.90;;;;;;5116600;28;20089;-81
2021/12/01 08:18:29;;;;;;;0.00;0.00;;;8.80;99.90;;;;;;5099396;28;20051;-81
2021/12/01 08:20:55;;;;;;;0.00;0.00;;;8.80;99.90;;;;;;5151055;27;20100;-81
2021/12/01 08:23:21;;;;;;;0.00;0.00;;;8.80;99.90;;;;;;5136375;27;20051;-81
2021/12/01 08:25:46;;;;;;;0.00;0.00;;;8.80;99.90;;;;;;5154342;27;20054;-81
2021/12/01 08:28:12;;;;;;;0.00;0.00;;;8.90;99.90;;;;;;5120644;27;20087;-81
2021/12/01 08:30:38;;;;;;;0.00;0.00;;;8.80;99.90;;;;;;5135732;27;20039;-82
2021/12/01 08:33:04;;;;;;;0.00;0.00;;;8.90;99.90;;;;;;5099586;27;20066;-81
2021/12/01 08:35:30;;;;;;;0.00;0.00;;;9.00;99.90;;;;;;5118660;27;20039;-81
2021/12/01 08:37:56;;;;;;;0.00;0.00;;;9.00;99.90;;;;;;5118317;27;20046;-81
2021/12/01 08:40:21;;;;;;;0.00;0.00;;;9.10;99.90;;;;;;5101997;27;20053;-82
2021/12/01 08:42:47;;;;;;;0.00;0.00;;;9.10;99.90;;;;;;5119012;27;20390;-82
2021/12/01 08:45:14;;;;;;;0.00;0.00;;;9.20;99.90;;;;;;5102882;27;20462;-82
2021/12/01 08:47:40;;;;;;;0.00;0.00;;;9.20;99.90;;;;;;5102515;27;20093;-82
2021/12/01 08:50:08;;;;;;;0.00;0.00;;;9.20;99.90;;;;;;5120589;27;20043;-82
2021/12/01 08:52:34;;;;;;;0.10;0.00;;;9.20;99.90;;;;;;5119858;27;20043;-81
2021/12/01 08:54:59;;;;;;;0.00;0.00;;;9.20;99.90;;;;;;5102537;27;20074;-81
2021/12/01 08:57:25;;;;;;;0.15;0.10;;;9.10;99.90;;;;;;5102388;27;20251;-80
2021/12/01 08:59:51;;;;;;;0.00;0.00;;;9.20;99.90;;;;;;5119339;27;20076;-80
2021/12/01 09:02:17;;;;;;;0.00;0.00;;;9.20;99.90;;;;;;5101974;27;20100;-81
2021/12/01 09:04:44;;;;;;;0.00;0.00;;;9.10;99.90;;;;;;5119394;27;20047;-80
2021/12/01 09:07:10;;;;;;;0.10;0.00;;;9.10;99.90;;;;;;5119644;27;20043;-81
2021/12/01 09:09:36;;;;;;;0.20;0.15;;;9.10;99.90;;;;;;5102446;27;20047;-82
2021/12/01 09:12:02;;;;;;;0.00;0.00;;;9.10;99.90;;;;;;5102748;27;20054;-81
2021/12/01 09:14:28;;;;;;;1.02;0.05;;;9.10;99.90;;;;;;5119553;27;20501;-82
2021/12/01 09:16:55;;;;;;;0.20;0.20;;;9.00;99.90;;;;;;5119517;27;20093;-82
2021/12/01 09:19:22;;;;;;;0.00;0.00;;;9.10;99.90;;;;;;5101681;27;20142;-82
2021/12/01 09:21:48;;;;;;;0.15;0.15;;;9.00;99.90;;;;;;5119861;27;20050;-81
2021/12/01 09:24:15;;;;;;;0.10;0.10;;;9.20;99.90;;;;;;5101744;27;20054;-82
2021/12/01 09:26:41;;;;;;;0.20;0.20;;;9.10;99.90;;;;;;5118356;27;20054;-82
2021/12/01 09:29:07;;;;;;;0.10;0.00;;;9.10;99.90;;;;;;5102091;27;20051;-81
2021/12/01 09:31:33;;;;;;;0.00;0.00;;;9.20;99.90;;;;;;5118898;27;20050;-81
2021/12/01 09:33:59;;;;;;;0.00;0.00;;;9.20;99.90;;;;;;5118942;27;20055;-81
2021/12/01 09:36:25;;;;;;;1.35;0.30;;;9.20;99.90;;;;;;5101318;27;20380;-80
2021/12/01 09:38:51;;;;;;;0.00;0.00;;;9.10;99.90;;;;;;5101890;27;20043;-81
2021/12/01 09:41:17;;;;;;;0.05;0.05;;;9.20;99.90;;;;;;5101688;27;20051;-80
2021/12/01 09:43:43;;;;;;;0.00;0.00;;;9.10;99.90;;;;;;5102290;27;20043;-81
2021/12/01 09:46:09;;;;;;;0.00;0.00;;;9.10;99.90;;;;;;5118267;27;20077;-81
2021/12/01 09:48:38;;;;;;;0.00;0.00;;;9.20;99.90;;;;;;5101592;27;20504;-80
2021/12/01 09:51:05;;;;;;;0.00;0.00;;;9.30;99.90;;;;;;5101584;27;20093;-82
2021/12/01 09:53:30;;;;;;;0.20;0.20;;;9.40;99.90;;;;;;5117280;27;20074;-81
2021/12/01 09:55:56;;;;;;;0.20;0.20;;;9.40;99.90;;;;;;5117944;27;20078;-81
2021/12/01 09:58:30;;;;;;;0.00;0.00;;;9.50;99.90;;;;;;5117783;27;20118;-82
2021/12/01 10:00:59;;;;;;;0.00;0.00;;;9.40;99.90;;;;;;5118861;27;20114;-82
2021/12/01 10:03:25;;;;;;;0.00;0.00;;;9.40;99.90;;;;;;5118387;27;20090;-82
2021/12/01 10:06:09;;;;;;;0.00;0.00;;;9.40;99.90;;;;;;5118467;27;20371;-82
2021/12/01 10:08:49;;;;;;;0.00;0.00;;;9.40;99.90;;;;;;5101800;27;20170;-81
2021/12/01 10:11:16;;;;;;;0.47;0.47;;;9.40;99.90;;;;;;5100841;27;20050;-82
2021/12/01 10:14:13;;;;;;;0.00;0.00;;;9.40;99.90;;;;;;5100868;27;20039;-82
2021/12/01 10:16:43;;;;;;;1.02;0.47;;;9.30;99.90;;;;;;5035603;28;20057;-82
2021/12/01 10:19:12;;;;;;;0.00;0.00;;;9.30;99.90;;;;;;5019588;28;20111;-81
2021/12/01 10:21:49;;;;;;;0.00;0.00;;;9.10;99.90;;;;;;5018775;28;20094;-82
2021/12/01 10:24:21;;;;;;;0.00;0.00;;;9.20;99.90;;;;;;5031322;28;20060;-81
2021/12/01 10:27:11;;;;;;;0.00;0.00;;;9.20;99.90;;;;;;5033122;28;20061;-81
2021/12/01 10:29:49;;;;;;;0.00;0.00;;;9.20;99.90;;;;;;5010599;28;20045;-80
2021/12/01 10:32:17;;;;;;;0.00;0.00;;;9.20;99.90;;;;;;5036933;28;20041;-81
2021/12/01 10:34:53;;;;;;;0.00;0.00;;;9.10;99.90;;;;;;5019250;28;20056;-81
2021/12/01 10:37:33;;;;;;;0.00;0.00;;;9.10;99.90;;;;;;5035675;28;20056;-81
2021/12/01 10:40:16;;;;;;;0.00;0.00;;;9.00;99.90;;;;;;5035609;28;20060;-80
2021/12/01 10:43:02;;;;;;;0.15;0.15;;;9.00;99.90;;;;;;5035786;28;20396;-80
2021/12/01 10:45:36;;;;;;;0.13;0.10;;;9.10;99.90;;;;;;5035332;28;20053;-82
2021/12/01 10:48:05;;;;;;;0.00;0.00;;;9.10;99.90;;;;;;5035787;28;20048;-80
2021/12/01 10:50:33;;;;;;;0.00;0.00;;;9.10;99.90;;;;;;5019218;28;20049;-82
2021/12/01 10:53:06;;;;;;;0.00;0.00;;;9.10;99.90;;;;;;5074721;27;20051;-82
2021/12/01 10:55:34;;;;;;;0.00;0.00;;;9.20;99.90;;;;;;5099399;27;20134;-81
2021/12/01 10:58:04;;;;;;;0.00;0.00;;;9.20;99.90;;;;;;5100190;27;20049;-81
2021/12/01 11:00:36;;;;;;;0.00;0.00;;;9.10;99.90;;;;;;5100060;27;20047;-82
2021/12/01 11:03:10;;;;;;;0.28;0.28;;;9.10;99.90;;;;;;5117212;27;20428;-82
2021/12/01 11:05:39;;;;;;;0.00;0.00;;;9.10;99.90;;;;;;5117376;27;20057;-81
2021/12/01 11:08:27;;;;;;;0.20;0.20;;;9.10;99.90;;;;;;5113186;27;20494;-81
2021/12/01 11:11:06;;;;;;;0.00;0.00;;;9.10;99.90;;;;;;5099803;27;20070;-80
2021/12/01 11:13:32;;;;;;;2.47;0.40;;;9.20;99.90;;;;;;5099467;28;20133;-81
2021/12/01 11:16:01;;;;;;;0.20;0.20;;;9.20;99.90;;;;;;5099120;27;20047;-81
2021/12/01 11:18:29;;;;;;;0.75;0.73;;;9.30;99.90;;;;;;5117126;27;20047;-81
2021/12/01 11:20:57;;;;;;;0.00;0.00;;;9.30;99.90;;;;;;5115346;27;20065;-82
2021/12/01 11:23:26;;;;;;;0.00;0.00;;;9.40;99.90;;;;;;5112366;28;20083;-82
2021/12/01 11:26:01;;;;;;;0.00;0.00;;;9.30;99.90;;;;;;5099024;28;20514;-82
2021/12/01 11:28:32;;;;;;;0.00;0.00;;;9.30;99.90;;;;;;5099168;28;20487;-81
2021/12/01 11:31:00;;;;;;;0.10;0.10;;;9.30;99.90;;;;;;5115986;28;20054;-81
2021/12/01 11:33:28;;;;;;;0.00;0.00;;;9.30;99.90;;;;;;5115891;28;20055;-82
2021/12/01 11:35:58;;;;;;;0.00;0.00;;;9.40;99.90;;;;;;5115450;28;20486;-82
2021/12/01 11:38:24;;;;;;;0.10;0.10;;;9.40;99.90;;;;;;5116170;28;20031;-82
2021/12/01 11:40:51;;;;;;;0.00;0.00;;;9.40;99.90;;;;;;5098967;28;20043;-82
2021/12/01 11:43:20;;;;;;;0.10;0.05;;;9.40;99.90;;;;;;5116527;28;20502;-82
2021/12/01 11:45:46;;;;;;;0.00;0.00;;;9.40;99.90;;;;;;5116419;28;20220;-82
2021/12/01 11:48:36;;;;;;;0.20;0.00;;;9.40;99.90;;;;;;5098415;28;20047;-81
2021/12/01 11:51:20;;;;;;;0.00;0.00;;;9.50;99.90;;;;;;5102958;27;20550;-82
2021/12/01 11:53:55;;;;;;;1.02;0.47;;;9.40;99.90;;;;;;5103739;27;20055;-82
2021/12/01 11:56:26;;;;;;;;;;;9.40;99.90;;;;;;5120806;27;20047;-81
2021/12/01 11:59:00;;;;;;;0.00;0.00;;;9.40;99.90;;;;;;5119362;27;19919;-82
2021/12/01 12:01:25;;;;;;;1.45;0.65;;;9.50;99.90;;;;;;5119877;27;20461;-82
2021/12/01 12:03:54;;;;;;;0.00;0.00;;;9.50;99.90;;;;;;5120211;27;20078;-81
2021/12/01 12:06:25;;;;;;;6.13;1.02;;;9.50;99.90;;;;;;5120279;27;20524;-81
2021/12/01 12:08:53;;;;;;;2.45;0.03;;;9.50;99.90;;;;;;5101653;27;20059;-83
2021/12/01 12:11:46;;;;;;;7.55;1.25;;;9.50;99.90;;;;;;5116528;27;20096;-82
2021/12/01 12:14:25;;;;;;;1.17;0.20;;;9.50;99.90;;;;;;5103716;27;20382;-82
2021/12/01 12:17:08;;;;;;;2.72;1.23;;;9.40;99.90;;;;;;5102412;27;20086;-82
2021/12/01 12:19:43;;;;;;;2.20;0.75;;;9.50;99.90;;;;;;5094717;27;20435;-82
2021/12/01 12:22:13;;;;;;;0.00;0.00;;;9.40;99.90;;;;;;5103342;27;20119;-83
2021/12/01 12:24:47;;;;;;;0.55;0.28;;;9.40;99.90;;;;;;5099914;28;20094;-82
2021/12/01 12:27:33;;;;;;;0.00;0.00;;;9.30;99.90;;;;;;5083483;28;20087;-81
2021/12/01 12:30:00;;;;;;;1.38;0.93;;;9.30;99.90;;;;;;5082572;28;20096;-81
2021/12/01 12:32:29;;;;;;;1.77;0.57;;;9.20;99.90;;;;;;5082920;28;20058;-82
2021/12/01 12:35:02;;;;;;;0.05;0.00;;;9.20;99.90;;;;;;5082596;28;20062;-83
2021/12/01 12:37:31;;;;;;;2.60;0.93;;;9.20;99.90;;;;;;5092453;27;20035;-82
2021/12/01 12:39:58;;;;;;;0.03;0.03;;;9.20;99.90;;;;;;5103138;27;20043;-82
2021/12/01 12:42:24;;;;;;;0.00;0.00;;;9.10;99.90;;;;;;5120611;27;20081;-84
2021/12/01 12:45:00;;;;;;;0.10;0.10;;;9.10;99.90;;;;;;5102253;27;20051;-81
2021/12/01 12:47:25;;;;;;;0.20;0.20;;;9.10;99.90;;;;;;5102974;27;20047;-82
2021/12/01 12:50:11;;;;;;;0.00;0.00;;;9.10;99.90;;;;;;5120415;27;20497;-83
2021/12/01 12:52:43;;;;;;;0.00;0.00;;;9.10;99.90;;;;;;5119881;27;20512;-82
2021/12/01 12:55:21;;;;;;;0.00;0.00;;;9.10;99.90;;;;;;5103148;27;20039;-81
2021/12/01 12:57:49;;;;;;;0.73;0.63;;;9.10;99.90;;;;;;5154800;27;20508;-83
2021/12/01 13:00:20;;;;;;;0.00;0.00;;;9.00;99.90;;;;;;5103090;27;20072;-82
2021/12/01 13:02:47;;;;;;;9.63;0.68;;;9.00;99.90;;;;;;5119111;27;20564;-83
2021/12/01 13:05:13;;;;;;;0.00;0.00;;;9.00;99.90;;;;;;5119679;27;20486;-81
2021/12/01 13:07:44;;;;;;;0.63;0.28;;;9.00;99.90;;;;;;5102824;27;20065;-82